Aviation Digital Data Service (ADDS)

Output produced by METARs form (2255 UTC 18 December 2018)
found at http://aviationweather.gov/metar/data/
 
KTYR 182253Z 09005KT 10SM CLR 15/06 A3001 RMK AO2 SLP160 T01500061
KTYR 181749Z 1818/1918 VRB03KT P6SM SCT250 
     FM190600 15005KT P6SM BKN120 
     TEMPO 1908/1911 3SM BR 
     FM191100 15005KT 4SM BR VCSH OVC025